Terminal Aerodrome Forecast
Issued by NWS Bismarck, ND

Home | Current Version | Previous Version | Graphics & Text | Print | Product List | Glossary On
Versions: 1 2 3 4 5 6 7 8 9 10 11 12 13 14 15 16 17
000
FTUS43 KBIS 281700
TAFBIS
TAF
KBIS 281725Z 2818/2918 30010KT P6SM OVC120
     FM281900 32020G28KT 6SM BR OVC007
     FM290100 32019G25KT 6SM BR SCT001 OVC006
     FM290600 33014KT P6SM OVC010=

USA.gov is the U.S. government's official web portal to all federal, state and local government web resources and services.